Time;durP1;ratioP1;P1;durP2;ratioP2;P2;SDS_P1;SDS_P2;PMS_P1;PMS_P2;Temp;Humidity;BMP_temperature;BMP_pressure;BME280_temperature;BME280_humidity;BME280_pressure;Samples;Min_cycle;Max_cycle;Signal;HPM_P1;HPM_P2
2022/12/17 13:07:28;;;;;;;50.20;29.47;;;;;;;-4.55;100.00;97523.72;5016463;28;20230;-60
2022/12/17 13:09:57;;;;;;;53.53;29.73;;;;;;;-4.46;100.00;97518.75;5016067;28;20206;-64
2022/12/17 13:12:28;;;;;;;53.83;28.63;;;;;;;-4.26;100.00;97525.72;5015706;28;20218;-64
2022/12/17 13:15:06;;;;;;;54.87;30.73;;;;;;;-4.11;100.00;97518.63;4994959;28;20696;-63
2022/12/17 13:17:36;;;;;;;53.93;29.00;;;;;;;-3.86;100.00;97517.56;5015686;28;20716;-61
2022/12/17 13:20:23;;;;;;;58.87;30.53;;;;;;;-3.89;100.00;97522.91;5015366;28;20282;-60
2022/12/17 13:23:04;;;;;;;46.00;27.20;;;;;;;-4.18;100.00;97517.47;5012010;28;20213;-60
2022/12/17 13:25:29;;;;;;;51.13;28.57;;;;;;;-4.53;100.00;97514.22;5009944;28;20702;-62
2022/12/17 13:27:55;;;;;;;49.57;27.93;;;;;;;-4.72;100.00;97522.44;4996153;28;20179;-61
2022/12/17 13:30:29;;;;;;;49.23;28.43;;;;;;;-4.98;100.00;97520.97;4995948;28;20200;-59
2022/12/17 13:33:18;;;;;;;51.63;28.17;;;;;;;-4.67;100.00;97523.72;4996306;28;20168;-60
2022/12/17 13:36:08;;;;;;;57.87;31.00;;;;;;;-4.29;100.00;97530.28;4996088;28;20263;-62
2022/12/17 13:38:49;;;;;;;54.07;29.10;;;;;;;-4.72;100.00;97532.66;4995964;28;20569;-61
2022/12/17 13:41:18;;;;;;;53.13;29.67;;;;;;;-4.66;100.00;97533.03;4995834;28;20682;-60
2022/12/17 13:43:52;;;;;;;54.07;29.73;;;;;;;-4.62;100.00;97526.75;4996274;28;20172;-60
2022/12/17 13:46:26;;;;;;;55.23;30.63;;;;;;;-4.77;100.00;97524.50;4995610;28;20179;-61
2022/12/17 13:48:53;;;;;;;55.27;29.83;;;;;;;-4.69;100.00;97525.59;4991943;28;20207;-59
2022/12/17 13:51:20;;;;;;;55.00;32.07;;;;;;;-5.38;100.00;97523.03;4994901;28;20196;-60
2022/12/17 13:53:58;;;;;;;51.93;29.10;;;;;;;-5.49;100.00;97526.38;4995825;28;20583;-60
2022/12/17 13:56:28;;;;;;;52.13;28.00;;;;;;;-5.56;100.00;97527.72;4995459;28;20179;-61
2022/12/17 13:58:56;;;;;;;52.93;29.07;;;;;;;-5.59;100.00;97523.66;4995196;28;20199;-59
2022/12/17 14:01:22;;;;;;;56.20;29.43;;;;;;;-5.45;100.00;97528.59;4995278;28;20179;-61
2022/12/17 14:03:59;;;;;;;51.97;28.73;;;;;;;-5.45;100.00;97525.22;4995537;28;20252;-59
2022/12/17 14:06:31;;;;;;;62.77;31.47;;;;;;;-5.60;100.00;97529.69;4995347;28;20211;-59
2022/12/17 14:08:57;;;;;;;68.00;32.23;;;;;;;-5.60;100.00;97534.78;4994696;28;20208;-61
2022/12/17 14:14:39;;;;;;;58.77;31.53;;;;;;;-5.55;100.00;97537.00;4993291;28;20198;-61
2022/12/17 14:17:05;;;;;;;62.90;31.10;;;;;;;-5.15;100.00;97535.81;4995032;28;20180;-60
2022/12/17 14:19:32;;;;;;;56.20;30.60;;;;;;;-5.21;100.00;97537.97;4994916;28;20208;-60
2022/12/17 14:21:59;;;;;;;54.83;29.73;;;;;;;-5.61;100.00;97548.47;4990328;28;20184;-60
2022/12/17 14:24:28;;;;;;;57.90;31.20;;;;;;;-5.66;100.00;97545.44;4977582;28;20239;-61
2022/12/17 14:26:56;;;;;;;56.67;31.10;;;;;;;-5.31;100.00;97545.50;5001005;28;20603;-61
2022/12/17 14:29:30;;;;;;;50.57;28.77;;;;;;;-5.64;100.00;97548.69;5013825;28;20291;-61
2022/12/17 14:32:01;;;;;;;54.57;30.57;;;;;;;-5.73;100.00;97554.44;5012138;28;20218;-59
2022/12/17 14:34:28;;;;;;;61.53;33.43;;;;;;;-5.68;100.00;97557.47;5014328;28;20179;-61
2022/12/17 14:36:59;;;;;;;65.23;33.70;;;;;;;-5.77;100.00;97544.53;5014579;28;20187;-59
2022/12/17 14:39:31;;;;;;;63.83;34.57;;;;;;;-5.83;100.00;97553.44;5014634;28;20581;-60
2022/12/17 14:42:24;;;;;;;55.63;31.40;;;;;;;-5.89;100.00;97552.16;5014338;28;20164;-61
2022/12/17 14:44:55;;;;;;;55.37;32.43;;;;;;;-5.92;100.00;97559.22;5014174;28;20163;-60
2022/12/17 14:47:32;;;;;;;61.47;32.00;;;;;;;-5.95;100.00;97565.34;5014070;28;20198;-61
2022/12/17 14:50:11;;;;;;;57.83;30.63;;;;;;;-5.91;100.00;97555.75;5006938;28;20199;-59
2022/12/17 14:52:48;;;;;;;62.63;32.80;;;;;;;-5.91;100.00;97558.31;5008784;28;20203;-59
2022/12/17 14:55:36;;;;;;;56.13;31.50;;;;;;;-5.95;100.00;97556.88;5015278;28;20218;-59
2022/12/17 14:58:10;;;;;;;67.93;34.83;;;;;;;-5.99;100.00;97553.72;5014905;28;20199;-60
2022/12/17 15:00:40;;;;;;;62.27;34.07;;;;;;;-6.08;100.00;97559.47;5013066;28;20655;-60
2022/12/17 15:03:10;;;;;;;61.30;32.30;;;;;;;-6.06;100.00;97555.06;5013388;28;20258;-62
2022/12/17 15:05:36;;;;;;;61.07;33.10;;;;;;;-6.05;100.00;97551.59;5013701;28;20227;-59
2022/12/17 15:08:04;;;;;;;66.23;32.20;;;;;;;-6.11;100.00;97558.84;5013772;28;20187;-60
2022/12/17 15:10:29;;;;;;;61.90;34.67;;;;;;;-6.09;100.00;97557.84;5013823;28;20203;-61
2022/12/17 15:12:55;;;;;;;60.93;33.63;;;;;;;-6.24;100.00;97560.59;5012360;28;20179;-60
2022/12/17 15:15:21;;;;;;;64.90;33.33;;;;;;;-6.27;100.00;97569.28;5014055;28;20553;-58
2022/12/17 15:17:46;;;;;;;58.40;32.37;;;;;;;-6.34;100.00;97566.31;5013367;28;20179;-61
2022/12/17 15:20:16;;;;;;;66.53;33.93;;;;;;;-6.37;100.00;97563.97;5013241;28;20218;-61
2022/12/17 15:22:42;;;;;;;66.63;35.20;;;;;;;-6.45;100.00;97562.84;5013654;28;20171;-61
2022/12/17 15:25:18;;;;;;;65.70;35.27;;;;;;;-6.47;100.00;97565.53;5011763;28;20541;-58
2022/12/17 15:27:45;;;;;;;65.83;34.60;;;;;;;-6.27;100.00;97566.72;5012955;28;20266;-61
2022/12/17 15:30:15;;;;;;;65.07;34.20;;;;;;;-6.47;100.00;97570.63;5012872;28;20191;-58
2022/12/17 15:32:41;;;;;;;67.97;35.60;;;;;;;-6.34;100.00;97563.75;5010767;28;20242;-58
2022/12/17 15:35:07;;;;;;;63.23;32.50;;;;;;;-6.47;100.00;97575.72;5010656;28;20578;-58
2022/12/17 15:37:32;;;;;;;65.10;35.00;;;;;;;-6.22;100.00;97566.41;5013175;28;20167;-60
2022/12/17 15:39:58;;;;;;;63.27;33.67;;;;;;;-6.14;100.00;97575.19;5013350;28;20253;-60
2022/12/17 15:45:08;;;;;;;62.57;34.97;;;;;;;-6.48;100.00;97580.91;5013291;28;20164;-59
2022/12/17 15:47:33;;;;;;;62.67;36.83;;;;;;;-6.40;100.00;97576.91;5012874;28;20176;-64
2022/12/17 15:49:58;;;;;;;68.67;37.73;;;;;;;-6.38;100.00;97574.28;5005421;28;20198;-59
2022/12/17 15:52:24;;;;;;;63.50;35.53;;;;;;;-6.48;100.00;97586.00;5013287;28;20215;-61
2022/12/17 15:54:49;;;;;;;68.77;36.70;;;;;;;-6.72;100.00;97578.22;5013065;28;20171;-61
2022/12/17 15:57:15;;;;;;;71.07;35.67;;;;;;;-6.68;100.00;97594.13;5012914;28;20177;-61
2022/12/17 15:59:40;;;;;;;64.23;34.63;;;;;;;-6.63;100.00;97598.00;5013356;28;20556;-60
2022/12/17 16:02:09;;;;;;;67.53;37.90;;;;;;;-6.62;100.00;97594.53;5012955;28;20167;-61
2022/12/17 16:04:34;;;;;;;64.20;34.37;;;;;;;-6.64;100.00;97598.94;5013148;28;20481;-61
2022/12/17 16:06:59;;;;;;;60.97;33.93;;;;;;;-6.59;100.00;97599.47;5012660;28;20262;-61
2022/12/17 16:09:25;;;;;;;69.17;36.47;;;;;;;-6.65;100.00;97604.13;5012698;28;20211;-60
2022/12/17 16:11:53;;;;;;;64.60;32.93;;;;;;;-6.68;100.00;97597.50;5013044;28;20196;-59
2022/12/17 16:14:18;;;;;;;64.37;33.40;;;;;;;-6.66;100.00;97598.22;5010293;28;20590;-61
2022/12/17 16:16:43;;;;;;;62.50;33.43;;;;;;;-6.67;100.00;97600.84;5012630;28;20217;-59
2022/12/17 16:19:09;;;;;;;64.80;34.00;;;;;;;-6.79;100.00;97600.75;5012349;28;20209;-59
2022/12/17 16:21:34;;;;;;;64.00;33.77;;;;;;;-6.74;100.00;97600.44;5012704;28;20310;-62
2022/12/17 16:24:00;;;;;;;63.10;34.17;;;;;;;-6.69;100.00;97602.72;4994807;28;20186;-63
2022/12/17 16:26:25;;;;;;;70.87;36.33;;;;;;;-6.70;100.00;97604.44;5010186;28;20670;-63
2022/12/17 16:28:51;;;;;;;63.47;33.97;;;;;;;-6.87;100.00;97602.16;5012848;28;20689;-60
2022/12/17 16:31:16;;;;;;;60.00;33.90;;;;;;;-6.79;100.00;97608.38;5014419;28;20258;-60
2022/12/17 16:33:43;;;;;;;67.10;34.53;;;;;;;-6.79;100.00;97603.28;5012992;28;20168;-61
2022/12/17 16:36:12;;;;;;;69.47;36.07;;;;;;;-6.95;100.00;97602.66;5014136;28;20163;-61
2022/12/17 16:38:45;;;;;;;72.47;36.43;;;;;;;-7.12;100.00;97602.91;5016282;28;20199;-61
2022/12/17 16:41:12;;;;;;;66.30;35.07;;;;;;;-7.17;100.00;97600.66;5016435;28;20164;-61
2022/12/17 16:43:39;;;;;;;67.07;34.67;;;;;;;-7.09;100.00;97604.44;5016453;28;20160;-61
2022/12/17 16:46:21;;;;;;;67.07;35.87;;;;;;;-7.17;100.00;97610.03;5016449;28;20160;-61
2022/12/17 16:48:46;;;;;;;72.10;37.63;;;;;;;-7.17;100.00;97610.03;5012685;28;20195;-67
2022/12/17 16:51:16;;;;;;;63.47;34.07;;;;;;;-7.22;100.00;97601.84;5014259;28;20198;-61
2022/12/17 16:53:43;;;;;;;67.20;35.53;;;;;;;-7.31;100.00;97607.53;5016195;28;20214;-63
2022/12/17 16:56:18;;;;;;;68.93;36.40;;;;;;;-7.34;100.00;97611.09;4998548;28;20214;-63
2022/12/17 16:58:43;;;;;;;67.60;34.07;;;;;;;-7.37;100.00;97606.19;5016218;28;20209;-61
2022/12/17 17:01:09;;;;;;;71.87;35.53;;;;;;;-7.28;100.00;97612.44;5016447;28;20163;-62
2022/12/17 17:03:41;;;;;;;66.20;36.33;;;;;;;-7.48;100.00;97613.69;5016591;28;20529;-61
2022/12/17 17:06:14;;;;;;;69.90;36.60;;;;;;;-7.24;100.00;97617.22;5016647;28;20167;-60
2022/12/17 17:08:39;;;;;;;81.73;38.93;;;;;;;-7.30;100.00;97609.19;5021465;28;20207;-62
2022/12/17 17:11:18;;;;;;;85.90;37.00;;;;;;;-7.34;100.00;97607.72;5017723;28;20210;-64
2022/12/17 17:13:44;;;;;;;75.33;34.83;;;;;;;-7.52;100.00;97619.06;5022121;28;20182;-61
2022/12/17 17:16:10;;;;;;;78.63;38.83;;;;;;;-7.73;100.00;97621.97;5035907;28;20252;-62
2022/12/17 17:18:36;;;;;;;82.73;38.77;;;;;;;-7.79;100.00;97617.28;5035783;28;20720;-62
2022/12/17 17:21:20;;;;;;;80.57;37.27;;;;;;;-7.59;100.00;97621.16;5036139;28;20171;-64
2022/12/17 17:23:47;;;;;;;80.73;37.33;;;;;;;-7.59;100.00;97626.25;5035263;28;20197;-64
2022/12/17 17:26:13;;;;;;;83.50;36.43;;;;;;;-7.58;100.00;97627.88;5023529;28;20219;-64
2022/12/17 17:28:39;;;;;;;76.73;36.23;;;;;;;-7.45;100.00;97631.28;5015605;28;20278;-63
2022/12/17 17:31:07;;;;;;;94.97;38.07;;;;;;;-7.57;100.00;97632.84;5015122;28;20327;-64
2022/12/17 17:33:35;;;;;;;91.80;39.57;;;;;;;-7.36;100.00;97630.75;5015114;28;20179;-64
2022/12/17 17:36:09;;;;;;;89.67;38.57;;;;;;;-7.40;100.00;97638.63;5014597;28;20233;-66
2022/12/17 17:38:36;;;;;;;93.87;39.93;;;;;;;-7.40;100.00;97634.38;5014991;28;20202;-64
2022/12/17 17:41:03;;;;;;;76.33;38.00;;;;;;;-7.44;100.00;97637.22;5015224;28;20175;-62
2022/12/17 17:43:28;;;;;;;80.60;38.57;;;;;;;-7.26;100.00;97634.34;5007439;28;20484;-63
2022/12/17 17:45:57;;;;;;;82.60;39.20;;;;;;;-7.39;100.00;97636.00;5010279;28;20195;-62
2022/12/17 17:48:22;;;;;;;82.23;38.27;;;;;;;-7.29;100.00;97626.88;5011792;28;20229;-63
2022/12/17 17:51:07;;;;;;;83.13;38.10;;;;;;;-7.45;100.00;97638.09;5009921;28;20259;-63
2022/12/17 17:53:33;;;;;;;76.03;36.20;;;;;;;-7.31;100.00;97648.28;5006714;28;20183;-63
2022/12/17 17:56:14;;;;;;;82.80;39.87;;;;;;;-7.26;100.00;97646.25;5015102;28;20638;-64
2022/12/17 17:58:53;;;;;;;76.37;38.20;;;;;;;-7.16;100.00;97637.13;5014854;28;20591;-63
2022/12/17 18:01:25;;;;;;;85.33;37.47;;;;;;;-7.12;100.00;97638.56;5015005;28;20202;-66
2022/12/17 18:03:51;;;;;;;79.20;35.33;;;;;;;-7.26;100.00;97636.06;5014980;28;20230;-64
2022/12/17 18:06:18;;;;;;;81.60;36.43;;;;;;;-7.28;100.00;97640.44;5014538;28;20187;-64
2022/12/17 18:08:44;;;;;;;79.37;37.60;;;;;;;-7.20;100.00;97636.50;5014812;28;20195;-65
2022/12/17 18:11:11;;;;;;;73.23;35.33;;;;;;;-7.22;100.00;97637.50;5014857;28;20206;-63
2022/12/17 18:13:55;;;;;;;88.23;37.70;;;;;;;-7.35;100.00;97644.25;5025297;28;20194;-65
2022/12/17 18:16:28;;;;;;;79.33;37.23;;;;;;;-7.43;100.00;97654.94;5034938;28;20572;-65
2022/12/17 18:18:58;;;;;;;83.47;37.47;;;;;;;-7.59;100.00;97661.88;5035312;28;20199;-66
2022/12/17 18:21:25;;;;;;;83.60;38.13;;;;;;;-7.57;100.00;97657.50;5034962;28;20193;-63
2022/12/17 18:24:02;;;;;;;81.77;37.47;;;;;;;-7.57;100.00;97653.22;5015449;28;20606;-65
2022/12/17 18:26:30;;;;;;;73.43;35.67;;;;;;;-7.47;100.00;97650.94;4999786;28;20231;-65
2022/12/17 18:29:02;;;;;;;75.17;37.20;;;;;;;-7.61;100.00;97641.59;4992666;28;20710;-66
2022/12/17 18:31:28;;;;;;;75.63;36.43;;;;;;;-7.53;100.00;97647.97;4993892;28;20203;-66
2022/12/17 18:33:57;;;;;;;74.47;37.53;;;;;;;-7.43;100.00;97641.38;4994675;28;20180;-64
2022/12/17 18:36:38;;;;;;;86.07;36.40;;;;;;;-7.35;100.00;97644.25;4993741;28;20330;-66
2022/12/17 18:39:07;;;;;;;75.37;38.13;;;;;;;-7.44;100.00;97643.13;4974461;28;20205;-65
2022/12/17 18:44:17;;;;;;;81.73;37.80;;;;;;;-7.58;100.00;97643.16;4994181;28;20492;-64
2022/12/17 18:46:43;;;;;;;75.53;37.03;;;;;;;-7.62;100.00;97652.69;4994573;28;20172;-65
2022/12/17 18:49:10;;;;;;;79.77;37.53;;;;;;;-7.66;100.00;97655.50;4993847;28;20211;-65
2022/12/17 18:51:38;;;;;;;74.00;35.83;;;;;;;-7.62;100.00;97659.50;4993940;28;20199;-62
2022/12/17 18:54:08;;;;;;;72.40;36.63;;;;;;;-7.56;100.00;97664.22;4982484;28;20560;-63
2022/12/17 18:56:36;;;;;;;66.90;34.13;;;;;;;-7.63;100.00;97661.22;4993980;28;20180;-62
2022/12/17 18:59:02;;;;;;;71.63;36.47;;;;;;;-7.73;100.00;97672.88;4994303;28;20203;-62
2022/12/17 19:01:31;;;;;;;68.47;35.23;;;;;;;-7.65;100.00;97674.97;4994246;28;20206;-62
2022/12/17 19:04:01;;;;;;;68.93;34.33;;;;;;;-7.68;100.00;97678.50;4994472;28;20172;-62
2022/12/17 19:06:26;;;;;;;70.50;34.67;;;;;;;-7.72;100.00;97686.41;4994045;28;20192;-62
2022/12/17 19:08:52;;;;;;;71.90;36.47;;;;;;;-7.72;100.00;97689.78;4993628;28;20206;-62
2022/12/17 19:11:20;;;;;;;72.30;36.73;;;;;;;-7.58;100.00;97683.88;4992286;28;20208;-62
2022/12/17 19:13:46;;;;;;;76.67;37.60;;;;;;;-7.79;100.00;97680.88;4993446;28;20690;-62
2022/12/17 19:16:17;;;;;;;73.00;36.70;;;;;;;-7.79;100.00;97685.94;4994095;28;20180;-62
2022/12/17 19:18:43;;;;;;;70.13;37.27;;;;;;;-7.78;100.00;97677.41;4994165;28;20200;-61
2022/12/17 19:21:15;;;;;;;76.87;37.93;;;;;;;-7.58;100.00;97668.59;4976957;28;20172;-63
2022/12/17 19:23:40;;;;;;;69.80;35.80;;;;;;;-7.60;100.00;97683.97;4993671;28;20184;-61
2022/12/17 19:26:12;;;;;;;76.07;36.87;;;;;;;-7.65;100.00;97682.59;4991983;28;20314;-61
2022/12/17 19:28:42;;;;;;;66.97;33.80;;;;;;;-7.72;100.00;97694.88;4994119;28;20204;-63
2022/12/17 19:31:09;;;;;;;74.97;36.33;;;;;;;-7.83;100.00;97694.69;4993418;28;20200;-62
2022/12/17 19:33:34;;;;;;;71.50;35.93;;;;;;;-7.79;100.00;97700.41;4990959;28;20562;-62
2022/12/17 19:36:06;;;;;;;75.40;35.60;;;;;;;-7.95;100.00;97710.66;4993476;28;20183;-62
2022/12/17 19:38:32;;;;;;;75.40;37.10;;;;;;;-8.04;100.00;97716.28;4993416;28;20686;-62
2022/12/17 19:41:06;;;;;;;77.13;37.43;;;;;;;-8.08;100.00;97717.38;4993460;28;20594;-62
2022/12/17 19:43:32;;;;;;;72.33;35.33;;;;;;;-8.15;100.00;97719.47;4993661;28;20168;-62
2022/12/17 19:46:06;;;;;;;82.33;38.73;;;;;;;-8.06;100.00;97723.19;4976257;28;20194;-62
2022/12/17 19:48:33;;;;;;;70.77;35.70;;;;;;;-8.15;100.00;97716.91;4993354;28;20245;-62
2022/12/17 19:51:01;;;;;;;69.43;36.33;;;;;;;-8.08;100.00;97723.25;4992852;28;20160;-58
2022/12/17 19:53:27;;;;;;;75.40;36.43;;;;;;;-8.17;100.00;97728.88;4992761;28;20231;-61
2022/12/17 19:55:54;;;;;;;73.70;34.10;;;;;;;-8.17;100.00;97725.53;4993159;28;20316;-62
2022/12/17 19:58:21;;;;;;;73.17;35.70;;;;;;;-8.05;100.00;97725.66;4993557;28;20156;-62
2022/12/17 20:00:47;;;;;;;73.03;36.77;;;;;;;-8.00;100.00;97717.75;4993349;28;20171;-63
2022/12/17 20:03:13;;;;;;;74.63;36.00;;;;;;;-8.07;100.00;97724.91;4994018;28;20694;-62
2022/12/17 20:05:42;;;;;;;67.03;34.30;;;;;;;-8.07;100.00;97713.91;4997973;28;20208;-62
2022/12/17 20:08:07;;;;;;;66.33;33.10;;;;;;;-8.01;100.00;97714.38;5000112;28;20182;-62
2022/12/17 20:10:33;;;;;;;74.60;34.77;;;;;;;-7.95;100.00;97710.66;4991292;28;20287;-62
2022/12/17 20:12:58;;;;;;;72.83;35.20;;;;;;;-7.77;100.00;97719.75;4992249;28;20220;-62
2022/12/17 20:15:24;;;;;;;72.67;35.23;;;;;;;-7.93;100.00;97718.22;4992786;28;20239;-62
2022/12/17 20:17:49;;;;;;;71.10;34.47;;;;;;;-8.03;100.00;97720.47;4992956;28;20184;-60
2022/12/17 20:20:16;;;;;;;71.77;34.77;;;;;;;-7.94;100.00;97714.03;4993034;28;20214;-62
2022/12/17 20:22:41;;;;;;;65.23;34.60;;;;;;;-7.77;100.00;97711.31;4992893;28;20710;-62
2022/12/17 20:25:08;;;;;;;74.90;35.33;;;;;;;-7.81;100.00;97713.22;4990789;28;20180;-62
2022/12/17 20:27:34;;;;;;;71.83;35.83;;;;;;;-7.85;100.00;97719.38;4992360;28;20279;-61
2022/12/17 20:29:59;;;;;;;70.47;36.60;;;;;;;-7.98;100.00;97710.84;4992300;28;20351;-61
2022/12/17 20:32:24;;;;;;;71.67;34.13;;;;;;;-7.79;100.00;97715.66;4992542;28;20220;-62
2022/12/17 20:34:50;;;;;;;69.10;34.67;;;;;;;-7.86;100.00;97715.22;4992711;28;20164;-60
2022/12/17 20:37:15;;;;;;;70.97;34.70;;;;;;;-7.90;100.00;97703.56;4991918;28;20279;-62
2022/12/17 20:39:41;;;;;;;72.73;35.37;;;;;;;-7.90;100.00;97708.66;4992435;28;20251;-62
2022/12/17 20:42:08;;;;;;;75.57;36.43;;;;;;;-7.93;100.00;97713.13;4993073;28;20172;-62
2022/12/17 20:44:33;;;;;;;77.70;38.27;;;;;;;-7.88;100.00;97709.41;4992537;28;20160;-62
2022/12/17 20:47:00;;;;;;;74.23;36.40;;;;;;;-7.93;100.00;97706.31;4992436;28;20693;-64
2022/12/17 20:49:25;;;;;;;74.90;36.63;;;;;;;-7.97;100.00;97702.31;4993007;28;20199;-61
2022/12/17 20:51:51;;;;;;;76.23;36.53;;;;;;;-8.02;100.00;97706.84;4993166;28;20291;-61
2022/12/17 20:54:16;;;;;;;77.80;36.90;;;;;;;-8.13;100.00;97697.28;4992020;28;20164;-63
2022/12/17 20:56:42;;;;;;;83.83;37.50;;;;;;;-8.08;100.00;97695.28;4975291;28;20182;-62
2022/12/17 20:59:13;;;;;;;75.63;36.37;;;;;;;-8.34;100.00;97698.56;4992610;28;20196;-63
2022/12/17 21:01:38;;;;;;;70.53;36.80;;;;;;;-8.19;100.00;97712.09;4992633;28;20172;-63
2022/12/17 21:04:07;;;;;;;74.60;36.27;;;;;;;-8.24;100.00;97717.44;4992540;28;20172;-63
2022/12/17 21:06:38;;;;;;;74.00;38.20;;;;;;;-8.19;100.00;97720.53;4974848;28;20263;-64
2022/12/17 21:09:03;;;;;;;75.13;35.43;;;;;;;-8.35;100.00;97712.16;4974223;28;20632;-64
2022/12/17 21:11:31;;;;;;;70.97;36.03;;;;;;;-8.29;100.00;97716.06;4989784;28;20295;-64
2022/12/17 21:13:58;;;;;;;71.07;34.57;;;;;;;-8.22;100.00;97713.09;4992508;28;20590;-63
2022/12/17 21:16:26;;;;;;;66.67;35.20;;;;;;;-8.26;100.00;97698.91;4992418;28;20190;-63
2022/12/17 21:18:52;;;;;;;74.07;35.57;;;;;;;-8.25;100.00;97699.75;4994960;28;20214;-62
2022/12/17 21:21:22;;;;;;;70.10;36.83;;;;;;;-8.36;100.00;97709.72;4996090;28;20546;-63
2022/12/17 21:23:48;;;;;;;65.87;35.03;;;;;;;-8.41;100.00;97705.72;4978564;28;20187;-62
2022/12/17 21:26:20;;;;;;;69.53;34.40;;;;;;;-8.32;100.00;97706.09;4975297;28;20563;-62
2022/12/17 21:28:47;;;;;;;69.10;33.83;;;;;;;-8.39;100.00;97704.81;4995944;28;20214;-63
2022/12/17 21:31:21;;;;;;;65.97;36.80;;;;;;;-8.54;100.00;97704.78;4994536;28;20207;-64
2022/12/17 21:33:48;;;;;;;79.70;37.50;;;;;;;-8.48;100.00;97701.09;4995836;28;20164;-62
2022/12/17 21:36:15;;;;;;;75.20;36.57;;;;;;;-8.44;100.00;97705.91;4993738;28;20199;-62
2022/12/17 21:38:41;;;;;;;77.00;37.17;;;;;;;-8.53;100.00;97714.06;4987107;28;20196;-62
2022/12/17 21:41:14;;;;;;;81.97;37.13;;;;;;;-8.49;100.00;97712.16;4995740;28;20165;-62
2022/12/17 21:43:40;;;;;;;73.80;36.73;;;;;;;-8.60;100.00;97717.81;4978363;28;20180;-63
2022/12/17 21:46:07;;;;;;;77.73;36.93;;;;;;;-8.49;100.00;97720.59;4995234;28;20211;-62
2022/12/17 21:48:34;;;;;;;71.73;35.40;;;;;;;-8.47;100.00;97721.31;4995584;28;20203;-62
2022/12/17 21:51:03;;;;;;;67.93;35.13;;;;;;;-8.32;100.00;97723.91;4977485;28;20918;-62
2022/12/17 21:53:29;;;;;;;68.20;35.10;;;;;;;-8.46;100.00;97725.47;4975974;28;20165;-62
2022/12/17 21:56:07;;;;;;;66.87;33.97;;;;;;;-8.28;100.00;97717.69;4994681;28;20536;-61
2022/12/17 21:58:32;;;;;;;70.27;36.37;;;;;;;-8.45;100.00;97716.97;4995880;28;20200;-63
2022/12/17 22:00:58;;;;;;;75.13;36.27;;;;;;;-8.61;100.00;97717.91;4995168;28;20171;-63
2022/12/17 22:03:23;;;;;;;72.13;34.23;;;;;;;-8.60;100.00;97722.09;4994677;28;20207;-61
2022/12/17 22:05:49;;;;;;;69.37;35.10;;;;;;;-8.68;100.00;97727.59;4995128;28;20164;-63
2022/12/17 22:08:14;;;;;;;72.13;34.90;;;;;;;-8.76;100.00;97732.28;4977143;28;20604;-61
2022/12/17 22:10:41;;;;;;;66.57;36.07;;;;;;;-8.63;100.00;97723.06;4992633;28;20210;-62
2022/12/17 22:15:54;;;;;;;68.07;33.20;;;;;;;-8.58;100.00;97736.31;4994714;28;20589;-60
2022/12/17 22:18:20;;;;;;;70.30;35.90;;;;;;;-8.49;100.00;97740.09;4994466;28;20592;-62
2022/12/17 22:20:56;;;;;;;71.70;36.30;;;;;;;-8.54;100.00;97750.53;4994993;28;20161;-61
2022/12/17 22:23:22;;;;;;;63.43;34.57;;;;;;;-8.61;100.00;97749.22;4994875;28;20188;-62
2022/12/17 22:25:47;;;;;;;66.10;35.77;;;;;;;-8.49;100.00;97738.38;4998383;28;20645;-61
2022/12/17 22:28:13;;;;;;;67.67;34.90;;;;;;;-8.45;100.00;97727.13;5012822;28;20219;-62
2022/12/17 22:33:22;;;;;;;61.43;34.33;;;;;;;-8.52;100.00;97725.81;5013478;28;20179;-62
2022/12/17 22:35:49;;;;;;;55.53;33.90;;;;;;;-8.39;100.00;97727.69;5013649;28;20163;-62
2022/12/17 22:38:14;;;;;;;69.93;36.63;;;;;;;-8.31;100.00;97726.34;5011394;28;20729;-62
2022/12/17 22:40:40;;;;;;;70.00;35.60;;;;;;;-8.39;100.00;97735.31;5013437;28;20216;-63
2022/12/17 22:45:49;;;;;;;68.97;34.33;;;;;;;-8.40;100.00;97747.19;4993698;28;20227;-63
2022/12/17 22:48:15;;;;;;;73.77;36.33;;;;;;;-8.29;100.00;97749.91;4995928;28;20838;-62
2022/12/17 22:50:41;;;;;;;73.83;38.93;;;;;;;-8.15;100.00;97737.25;5014019;28;20214;-63
2022/12/17 22:53:07;;;;;;;68.97;34.13;;;;;;;-8.21;100.00;97737.59;5013366;28;20217;-62
2022/12/17 22:55:33;;;;;;;71.40;37.43;;;;;;;-8.30;100.00;97737.34;5012859;28;20171;-59
2022/12/17 22:57:59;;;;;;;75.27;38.13;;;;;;;-8.15;100.00;97734.72;5014143;28;20168;-62
2022/12/17 23:00:31;;;;;;;73.60;37.50;;;;;;;-8.08;100.00;97727.56;5012640;28;20210;-63
2022/12/17 23:02:57;;;;;;;76.40;36.43;;;;;;;-8.21;100.00;97726.63;5013349;28;20152;-63
2022/12/17 23:05:24;;;;;;;78.13;36.00;;;;;;;-8.16;100.00;97725.44;5014109;28;20167;-62
2022/12/17 23:07:51;;;;;;;72.23;36.53;;;;;;;-8.13;100.00;97722.72;5012773;28;20231;-63
2022/12/17 23:10:16;;;;;;;71.80;37.03;;;;;;;-8.13;100.00;97724.44;5011790;28;20203;-66
2022/12/17 23:12:55;;;;;;;71.23;37.13;;;;;;;-8.09;100.00;97729.28;5012234;28;20213;-63
2022/12/17 23:15:27;;;;;;;72.07;36.47;;;;;;;-8.02;100.00;97722.91;5012608;28;20545;-63
2022/12/17 23:17:57;;;;;;;70.03;37.03;;;;;;;-8.12;100.00;97726.91;5013584;28;20190;-63
2022/12/17 23:20:24;;;;;;;72.13;36.63;;;;;;;-8.04;100.00;97723.91;5013764;28;20298;-63
2022/12/17 23:22:49;;;;;;;69.63;36.07;;;;;;;-8.12;100.00;97731.16;5021611;28;20649;-63
2022/12/17 23:25:15;;;;;;;76.27;38.20;;;;;;;-8.26;100.00;97733.69;5018057;28;20190;-64
2022/12/17 23:27:40;;;;;;;75.57;37.23;;;;;;;-8.30;100.00;97745.75;4993662;28;20187;-63
2022/12/17 23:30:06;;;;;;;65.23;36.80;;;;;;;-8.52;100.00;97746.16;4993215;28;20206;-63
2022/12/17 23:32:32;;;;;;;70.53;38.20;;;;;;;-8.59;100.00;97744.06;4993435;28;20240;-63
2022/12/17 23:34:57;;;;;;;66.90;36.37;;;;;;;-8.51;100.00;97739.34;4993619;28;20230;-63
2022/12/17 23:37:23;;;;;;;74.83;38.23;;;;;;;-8.55;100.00;97733.63;4993711;28;20655;-62
2022/12/17 23:39:48;;;;;;;69.27;38.87;;;;;;;-8.43;100.00;97729.59;4993720;28;20613;-63
2022/12/17 23:42:14;;;;;;;78.97;39.20;;;;;;;-8.51;100.00;97731.72;4993580;28;20168;-63
2022/12/17 23:44:39;;;;;;;77.70;38.63;;;;;;;-8.68;100.00;97729.31;4993299;28;20200;-63
2022/12/17 23:47:05;;;;;;;68.40;35.30;;;;;;;-8.56;100.00;97737.06;4993122;28;20386;-63
2022/12/17 23:49:30;;;;;;;70.10;38.03;;;;;;;-8.57;100.00;97735.44;4993881;28;20242;-63
2022/12/17 23:51:56;;;;;;;77.20;36.03;;;;;;;-8.68;100.00;97736.91;4972703;28;20679;-63
2022/12/17 23:54:21;;;;;;;74.73;36.77;;;;;;;-8.76;100.00;97739.91;4992328;28;20266;-63
2022/12/17 23:56:46;;;;;;;71.47;36.93;;;;;;;-8.67;100.00;97734.31;4993366;28;20184;-63
2022/12/17 23:59:12;;;;;;;69.13;36.10;;;;;;;-8.70;100.00;97733.66;4993106;28;20207;-62
